Time;durP1;ratioP1;P1;durP2;ratioP2;P2;SDS_P1;SDS_P2;PMS_P1;PMS_P2;Temp;Humidity;BMP_temperature;BMP_pressure;BME280_temperature;BME280_humidity;BME280_pressure;Samples;Min_cycle;Max_cycle;Signal;HPM_P1;HPM_P2
2021/05/30 00:00:01;;;;;;;3.33;2.13;;;;;;;11.20;67.26;100484.41;5052319;28;20040;-82
2021/05/30 00:02:29;;;;;;;4.43;2.50;;;;;;;11.05;67.74;100478.13;5052393;28;20079;-74
2021/05/30 00:04:57;;;;;;;3.63;2.33;;;;;;;11.16;67.17;100473.88;5052769;28;20056;-73
2021/05/30 00:07:25;;;;;;;6.03;2.38;;;;;;;11.01;67.87;100479.28;5052488;28;20041;-76
2021/05/30 00:09:54;;;;;;;4.30;2.53;;;;;;;11.06;67.85;100477.19;5052482;28;20037;-72
2021/05/30 00:12:22;;;;;;;3.55;2.30;;;;;;;11.03;68.00;100475.56;5052202;28;20830;-74
2021/05/30 00:14:51;;;;;;;3.80;2.45;;;;;;;11.05;67.94;100472.81;5052901;28;20375;-73
2021/05/30 00:17:19;;;;;;;5.20;2.30;;;;;;;10.98;67.89;100466.09;5052327;28;20044;-75
2021/05/30 00:19:47;;;;;;;6.10;2.55;;;;;;;11.01;67.75;100472.13;5052752;28;20509;-74
2021/05/30 00:22:15;;;;;;;4.55;2.30;;;;;;;11.00;67.91;100472.19;5052034;28;20052;-77
2021/05/30 00:24:43;;;;;;;7.40;2.50;;;;;;;10.98;67.84;100474.97;5052323;28;20123;-75
2021/05/30 00:27:11;;;;;;;4.35;2.38;;;;;;;10.94;68.08;100470.75;5051313;28;20045;-74
2021/05/30 00:29:39;;;;;;;4.10;2.20;;;;;;;10.85;68.46;100472.16;5052503;28;20049;-73
2021/05/30 00:32:08;;;;;;;4.00;2.25;;;;;;;10.81;68.52;100467.09;5052047;28;20045;-74
2021/05/30 00:34:39;;;;;;;3.70;2.17;;;;;;;10.94;67.63;100472.56;5052314;28;20052;-73
2021/05/30 00:37:07;;;;;;;4.68;2.25;;;;;;;10.86;67.90;100471.19;5052103;28;20044;-72
2021/05/30 00:39:35;;;;;;;5.50;2.40;;;;;;;10.82;67.96;100469.66;5052128;28;20081;-73
2021/05/30 00:42:03;;;;;;;4.85;2.60;;;;;;;10.83;67.85;100460.72;5052312;28;20052;-74
2021/05/30 00:44:31;;;;;;;3.53;2.10;;;;;;;10.63;68.91;100461.00;5052117;28;20131;-72
2021/05/30 00:46:59;;;;;;;4.38;2.55;;;;;;;10.62;68.85;100461.09;5055771;28;20048;-74
2021/05/30 00:49:28;;;;;;;4.47;2.67;;;;;;;10.65;68.61;100460.91;5055375;28;20044;-74
2021/05/30 00:51:56;;;;;;;4.97;2.70;;;;;;;10.67;68.61;100459.00;5055639;28;20079;-74
2021/05/30 00:54:24;;;;;;;3.72;2.45;;;;;;;10.57;69.06;100459.53;5053785;28;20055;-70
2021/05/30 00:56:52;;;;;;;4.80;2.88;;;;;;;10.54;69.04;100459.72;5055701;28;20071;-76
2021/05/30 00:59:20;;;;;;;4.45;2.45;;;;;;;10.69;68.43;100452.63;5055256;28;20106;-73
2021/05/30 01:01:49;;;;;;;3.80;2.47;;;;;;;10.78;68.11;100449.44;5055391;28;20090;-72
2021/05/30 01:04:17;;;;;;;5.30;2.58;;;;;;;10.74;67.86;100461.25;5055074;28;20119;-74
2021/05/30 01:06:45;;;;;;;4.80;2.80;;;;;;;10.69;68.01;100457.97;5054557;28;20052;-75
2021/05/30 01:09:13;;;;;;;4.65;2.60;;;;;;;10.57;68.19;100459.53;5055301;28;20041;-75
2021/05/30 01:11:46;;;;;;;4.28;2.47;;;;;;;10.62;68.16;100451.28;5055466;28;20116;-73
2021/05/30 01:14:14;;;;;;;4.03;2.70;;;;;;;10.63;68.00;100454.81;5055285;28;20101;-72
2021/05/30 01:16:42;;;;;;;4.30;2.78;;;;;;;10.58;68.25;100455.06;5055484;28;20037;-73
2021/05/30 01:19:12;;;;;;;5.18;2.72;;;;;;;10.55;68.29;100450.75;5054900;28;20049;-72
2021/05/30 01:21:43;;;;;;;4.40;2.70;;;;;;;10.62;68.09;100451.28;5055114;28;20041;-73
2021/05/30 01:24:15;;;;;;;5.68;2.90;;;;;;;10.64;67.74;100465.38;5055375;28;20095;-74
2021/05/30 01:26:44;;;;;;;5.40;2.63;;;;;;;10.56;68.00;100455.16;5055266;28;20052;-75
2021/05/30 01:29:12;;;;;;;5.25;2.90;;;;;;;10.54;68.28;100462.38;5054889;28;20276;-75
2021/05/30 01:31:40;;;;;;;4.90;2.90;;;;;;;10.40;69.36;100466.75;5055145;28;20068;-74
2021/05/30 01:34:08;;;;;;;4.25;2.45;;;;;;;10.51;68.54;100465.19;5054858;28;20448;-74
2021/05/30 01:36:36;;;;;;;7.10;2.90;;;;;;;10.51;68.54;100461.69;5054599;28;20067;-74
2021/05/30 01:39:05;;;;;;;4.60;2.70;;;;;;;10.46;68.72;100461.94;5054101;28;20061;-73
2021/05/30 01:41:34;;;;;;;3.72;2.42;;;;;;;10.51;68.43;100464.34;5054997;28;20478;-73
2021/05/30 01:44:02;;;;;;;4.53;2.80;;;;;;;10.42;68.87;100464.84;5054720;28;20446;-74
2021/05/30 01:46:30;;;;;;;4.72;2.90;;;;;;;10.41;69.01;100461.34;5054642;28;20044;-74
2021/05/30 01:48:58;;;;;;;5.68;2.70;;;;;;;10.52;68.61;100464.28;5054849;28;20065;-74
2021/05/30 01:51:26;;;;;;;4.65;2.70;;;;;;;10.43;69.05;100471.94;5054094;28;20056;-75
2021/05/30 01:54:04;;;;;;;4.50;2.60;;;;;;;10.40;69.34;100466.75;5054460;28;20493;-74
2021/05/30 01:59:20;;;;;;;4.25;2.47;;;;;;;10.39;69.77;100465.03;5054434;28;20072;-74
2021/05/30 02:01:49;;;;;;;4.82;2.85;;;;;;;10.37;70.05;100461.59;5054479;28;20045;-75
2021/05/30 02:04:19;;;;;;;4.88;2.65;;;;;;;10.31;70.20;100453.00;5054270;28;20477;-73
2021/05/30 02:06:48;;;;;;;5.18;2.47;;;;;;;10.29;70.50;100464.69;5053119;28;20045;-73
2021/05/30 02:09:17;;;;;;;4.07;2.47;;;;;;;10.28;70.70;100465.63;5054284;28;20512;-72
2021/05/30 02:11:45;;;;;;;5.38;2.72;;;;;;;10.25;70.77;100458.69;5054393;28;20041;-73
2021/05/30 02:14:14;;;;;;;4.60;2.40;;;;;;;10.26;70.96;100460.41;5053826;28;20052;-72
2021/05/30 02:16:43;;;;;;;4.40;2.80;;;;;;;10.08;71.78;100464.03;5054044;28;20049;-72
2021/05/30 02:19:10;;;;;;;7.47;2.67;;;;;;;10.06;72.09;100468.59;5053641;28;20040;-76
2021/05/30 02:21:41;;;;;;;4.70;3.00;;;;;;;10.09;71.73;100468.44;5054172;28;20045;-73
2021/05/30 02:24:09;;;;;;;4.40;2.60;;;;;;;10.08;72.02;100466.72;5054086;28;20052;-74
2021/05/30 02:26:37;;;;;;;6.93;2.95;;;;;;;10.06;72.18;100457.94;5059025;28;20049;-73
2021/05/30 02:29:06;;;;;;;5.47;2.92;;;;;;;10.07;72.15;100449.00;5058227;28;20052;-75
2021/05/30 02:31:34;;;;;;;5.03;2.70;;;;;;;10.04;72.14;100463.34;5054195;28;20063;-79
2021/05/30 02:34:03;;;;;;;5.47;2.88;;;;;;;10.02;72.46;100472.34;5055026;28;20048;-78
2021/05/30 02:36:31;;;;;;;4.53;3.10;;;;;;;9.94;73.34;100464.81;5054355;28;20041;-78
2021/05/30 02:38:59;;;;;;;4.18;2.50;;;;;;;10.01;72.86;100467.97;5052819;28;20486;-77
2021/05/30 02:41:27;;;;;;;6.30;2.88;;;;;;;9.90;73.06;100462.38;5053570;28;20036;-75
2021/05/30 02:43:56;;;;;;;7.20;2.90;;;;;;;9.94;72.93;100469.25;5053451;28;20057;-75
2021/05/30 02:46:23;;;;;;;5.28;2.92;;;;;;;9.88;73.10;100469.59;5053388;28;20037;-74
2021/05/30 02:48:51;;;;;;;4.10;2.50;;;;;;;10.01;72.78;100471.50;5053719;28;20041;-74
2021/05/30 02:51:20;;;;;;;5.75;2.75;;;;;;;9.99;72.68;100472.53;5052961;28;20076;-74
2021/05/30 02:53:50;;;;;;;5.90;2.70;;;;;;;9.99;72.85;100477.88;5053487;28;20052;-74
2021/05/30 02:56:18;;;;;;;4.95;2.92;;;;;;;9.91;73.22;100478.28;5053086;28;20044;-73
2021/05/30 02:58:46;;;;;;;4.63;2.40;;;;;;;9.92;72.94;100473.81;5053170;28;20052;-73
2021/05/30 03:01:14;;;;;;;4.93;2.75;;;;;;;9.87;73.49;100484.72;5053295;28;20048;-74
2021/05/30 03:03:41;;;;;;;4.50;2.80;;;;;;;10.00;72.73;100476.91;5053390;28;20094;-71
2021/05/30 03:06:09;;;;;;;5.05;2.70;;;;;;;9.97;72.86;100474.44;5053136;28;20045;-71
2021/05/30 03:08:38;;;;;;;4.28;2.95;;;;;;;9.99;72.90;100475.19;5052469;28;20045;-71
2021/05/30 03:11:06;;;;;;;3.83;2.55;;;;;;;10.13;72.31;100469.97;5053256;28;20460;-74
2021/05/30 03:13:34;;;;;;;5.47;2.90;;;;;;;10.18;72.01;100467.06;5052782;28;20448;-72
2021/05/30 03:16:02;;;;;;;3.70;2.63;;;;;;;10.24;72.15;100474.75;5053129;28;20036;-72
2021/05/30 03:18:30;;;;;;;4.07;2.80;;;;;;;10.29;71.80;100473.56;5052976;28;20040;-72
2021/05/30 03:21:01;;;;;;;6.07;3.28;;;;;;;10.35;71.61;100474.16;5052944;28;20481;-73
2021/05/30 03:23:29;;;;;;;5.50;3.20;;;;;;;10.36;71.55;100470.56;5052675;28;20120;-72
2021/05/30 03:25:57;;;;;;;5.35;2.85;;;;;;;10.38;71.54;100474.00;5052903;28;20505;-73
2021/05/30 03:28:25;;;;;;;4.97;2.50;;;;;;;10.43;71.11;100471.94;5052753;28;20049;-72
2021/05/30 03:30:53;;;;;;;4.75;2.63;;;;;;;10.54;70.76;100475.72;5053000;28;20037;-73
2021/05/30 03:33:21;;;;;;;5.65;2.60;;;;;;;10.63;70.41;100479.69;5052769;28;20064;-73
2021/05/30 03:35:50;;;;;;;5.07;2.60;;;;;;;10.70;70.13;100481.03;5051464;28;20045;-72
2021/05/30 03:38:19;;;;;;;5.18;2.85;;;;;;;10.80;69.60;100481.34;5051295;28;20060;-72
2021/05/30 03:40:59;;;;;;;3.67;2.60;;;;;;;10.85;69.22;100485.50;5053175;28;20049;-70
2021/05/30 03:43:28;;;;;;;3.90;2.70;;;;;;;10.82;69.17;100493.69;5052466;28;20429;-70
2021/05/30 03:45:57;;;;;;;3.45;2.20;;;;;;;10.89;68.83;100487.03;5053091;28;20139;-70
2021/05/30 03:48:25;;;;;;;3.90;2.53;;;;;;;11.03;68.66;100483.56;5052645;28;20049;-70
2021/05/30 03:50:53;;;;;;;3.80;2.35;;;;;;;11.15;68.10;100487.31;5052961;28;20045;-70
2021/05/30 03:53:22;;;;;;;5.32;2.40;;;;;;;11.18;67.98;100487.13;5052460;28;20050;-70
2021/05/30 03:55:50;;;;;;;4.50;2.50;;;;;;;11.03;68.77;100488.91;5051111;28;20059;-70
2021/05/30 03:58:19;;;;;;;4.65;2.53;;;;;;;10.90;68.85;100477.22;5052133;28;20145;-70
2021/05/30 04:00:51;;;;;;;3.70;2.25;;;;;;;11.08;68.00;100484.16;5052526;28;20069;-71
2021/05/30 04:03:19;;;;;;;3.65;2.10;;;;;;;11.14;68.00;100475.78;5052369;28;20071;-71
2021/05/30 04:05:46;;;;;;;4.90;2.42;;;;;;;11.02;68.57;100483.66;5052402;28;20076;-71
2021/05/30 04:08:14;;;;;;;3.88;2.45;;;;;;;11.02;68.67;100489.00;5052795;28;20052;-73
2021/05/30 04:10:45;;;;;;;5.65;2.80;;;;;;;10.94;69.05;100485.91;5051249;28;20053;-71
2021/05/30 04:13:12;;;;;;;5.40;2.70;;;;;;;10.99;68.83;100490.03;5052741;28;20140;-72
2021/05/30 04:15:40;;;;;;;4.90;2.60;;;;;;;10.87;69.18;100494.25;5052148;28;20056;-75
2021/05/30 04:18:09;;;;;;;4.88;2.70;;;;;;;10.87;69.51;100501.41;5052450;28;20045;-74
2021/05/30 04:20:37;;;;;;;4.82;2.78;;;;;;;10.96;69.33;100503.56;5054264;28;20156;-74
2021/05/30 04:23:05;;;;;;;4.13;2.65;;;;;;;10.85;69.48;100501.50;5056297;28;20037;-70
2021/05/30 04:25:33;;;;;;;6.93;2.55;;;;;;;10.86;69.56;100507.69;5055837;28;20103;-71
2021/05/30 04:28:01;;;;;;;4.25;2.72;;;;;;;10.99;68.88;100507.84;5056241;28;20055;-72
2021/05/30 04:30:28;;;;;;;4.50;2.60;;;;;;;10.98;69.15;100498.13;5055802;28;20548;-71
2021/05/30 04:32:56;;;;;;;4.25;2.78;;;;;;;10.95;69.00;100506.31;5056161;28;20048;-72
2021/05/30 04:35:25;;;;;;;4.75;2.83;;;;;;;11.17;68.44;100506.78;5055990;28;20436;-71
2021/05/30 04:37:52;;;;;;;4.57;2.78;;;;;;;11.25;67.95;100509.00;5055910;28;20045;-74
2021/05/30 04:40:23;;;;;;;4.93;2.83;;;;;;;11.24;68.03;100501.94;5054601;28;20051;-75
2021/05/30 04:42:51;;;;;;;5.13;2.90;;;;;;;11.55;67.03;100506.31;5055946;28;20452;-73
2021/05/30 04:45:20;;;;;;;6.43;3.28;;;;;;;11.95;65.29;100508.31;5055950;28;20049;-78
2021/05/30 04:47:48;;;;;;;5.53;3.30;;;;;;;12.48;63.52;100495.22;5055596;28;20045;-72
2021/05/30 04:50:16;;;;;;;4.65;2.72;;;;;;;12.72;62.38;100500.78;5055965;28;20091;-75
2021/05/30 04:52:44;;;;;;;5.80;3.42;;;;;;;13.04;61.88;100494.19;5055602;28;20065;-73
2021/05/30 04:55:13;;;;;;;6.30;2.72;;;;;;;13.61;59.51;100504.63;5055520;28;20099;-72
2021/05/30 04:57:44;;;;;;;5.15;2.80;;;;;;;13.68;59.09;100489.81;5055540;28;20934;-72
2021/05/30 05:00:14;;;;;;;4.82;2.80;;;;;;;13.90;58.64;100486.53;5055700;28;20037;-72
2021/05/30 05:02:42;;;;;;;4.05;2.65;;;;;;;13.82;58.57;100493.38;5055403;28;20090;-73
2021/05/30 05:05:12;;;;;;;4.40;2.72;;;;;;;13.91;57.98;100485.56;5055522;28;20052;-72
2021/05/30 05:07:40;;;;;;;4.75;2.80;;;;;;;13.81;58.60;100481.81;5055036;28;20445;-75
2021/05/30 05:10:11;;;;;;;4.07;2.38;;;;;;;13.75;58.64;100480.41;5055404;28;20041;-74
2021/05/30 05:12:39;;;;;;;4.20;2.35;;;;;;;13.56;59.17;100493.34;5055017;28;20120;-74
2021/05/30 05:15:09;;;;;;;3.92;2.55;;;;;;;13.48;59.86;100479.63;5055266;28;20049;-76
2021/05/30 05:17:37;;;;;;;3.95;2.60;;;;;;;13.21;60.34;100478.81;5055118;28;20051;-76
2021/05/30 05:20:06;;;;;;;4.18;2.50;;;;;;;13.41;59.94;100486.34;5055309;28;20041;-76
2021/05/30 05:22:34;;;;;;;4.10;2.55;;;;;;;13.34;60.50;100483.25;5054791;28;20041;-75
2021/05/30 05:25:03;;;;;;;4.38;2.72;;;;;;;13.23;59.96;100483.13;5055030;28;20419;-75
2021/05/30 05:27:32;;;;;;;5.55;2.55;;;;;;;13.32;60.18;100484.34;5054867;28;20123;-75
2021/05/30 05:29:59;;;;;;;4.15;2.30;;;;;;;13.60;58.93;100489.50;5055157;28;20441;-76
2021/05/30 05:32:27;;;;;;;4.22;2.60;;;;;;;14.07;57.42;100485.31;5054681;28;20089;-74
2021/05/30 05:34:55;;;;;;;4.25;2.60;;;;;;;14.10;57.42;100485.13;5054876;28;20040;-73
2021/05/30 05:37:25;;;;;;;3.97;2.38;;;;;;;14.19;57.63;100487.16;5055259;28;20052;-75
2021/05/30 05:39:53;;;;;;;4.68;2.38;;;;;;;14.23;57.00;100477.03;5056317;28;20076;-74
2021/05/30 05:42:21;;;;;;;4.97;2.50;;;;;;;14.05;57.56;100487.25;5058368;28;20052;-74
2021/05/30 05:44:49;;;;;;;4.25;2.50;;;;;;;14.08;57.79;100489.72;5054595;28;20060;-75
2021/05/30 05:47:18;;;;;;;3.83;2.17;;;;;;;14.09;58.02;100478.03;5054816;28;20052;-75
2021/05/30 05:49:48;;;;;;;4.75;2.70;;;;;;;14.39;57.62;100476.81;5054553;28;20037;-74
2021/05/30 05:52:16;;;;;;;4.65;2.65;;;;;;;14.71;55.02;100479.84;5054932;28;20091;-73
2021/05/30 05:54:47;;;;;;;4.68;2.67;;;;;;;14.78;54.97;100481.13;5054331;28;20056;-75
2021/05/30 05:57:15;;;;;;;4.70;2.42;;;;;;;15.01;54.12;100482.94;5054530;28;20494;-75
2021/05/30 05:59:42;;;;;;;3.92;2.40;;;;;;;15.07;54.04;100481.63;5054127;28;20409;-73
2021/05/30 06:02:12;;;;;;;3.90;2.40;;;;;;;14.82;54.77;100485.28;5054260;28;20041;-77
2021/05/30 06:04:43;;;;;;;3.90;2.30;;;;;;;14.82;54.54;100480.75;5054246;28;20087;-74
2021/05/30 06:07:11;;;;;;;4.30;2.55;;;;;;;14.95;54.59;100480.69;5054418;28;20398;-74
2021/05/30 06:09:39;;;;;;;5.30;2.40;;;;;;;15.00;54.17;100481.22;5053960;28;20110;-72
2021/05/30 06:12:07;;;;;;;4.93;2.58;;;;;;;14.79;54.55;100481.00;5054169;28;20552;-74
2021/05/30 06:14:36;;;;;;;4.32;2.38;;;;;;;14.78;54.87;100484.66;5053682;28;20067;-76
2021/05/30 06:17:05;;;;;;;4.63;2.60;;;;;;;14.95;53.89;100490.56;5054256;28;20060;-71
2021/05/30 06:19:34;;;;;;;4.00;2.35;;;;;;;14.85;54.51;100488.56;5058842;28;20071;-71
2021/05/30 06:22:02;;;;;;;4.22;2.40;;;;;;;14.64;55.38;100489.31;5053941;28;20040;-71
2021/05/30 06:24:30;;;;;;;4.60;2.75;;;;;;;14.72;54.95;100487.78;5053870;28;20045;-74
2021/05/30 06:26:59;;;;;;;5.50;2.60;;;;;;;15.17;54.06;100482.66;5053787;28;20075;-73
2021/05/30 06:29:27;;;;;;;6.38;3.05;;;;;;;15.59;53.13;100483.88;5054114;28;20072;-73
2021/05/30 06:31:55;;;;;;;4.53;2.97;;;;;;;17.05;49.09;100486.53;5053685;28;20045;-74
2021/05/30 06:34:25;;;;;;;4.22;2.88;;;;;;;17.44;47.92;100487.72;5052788;28;20048;-74
2021/05/30 06:36:54;;;;;;;4.18;2.67;;;;;;;19.36;43.53;100481.34;5053377;28;20119;-76
2021/05/30 06:39:23;;;;;;;4.50;2.50;;;;;;;20.11;41.75;100478.81;5053678;28;20055;-75
2021/05/30 06:41:52;;;;;;;5.05;2.40;;;;;;;20.95;40.55;100471.41;5053409;28;20041;-72
2021/05/30 06:44:20;;;;;;;4.40;2.50;;;;;;;21.46;39.57;100482.59;5053372;28;20054;-72
2021/05/30 06:46:48;;;;;;;4.25;2.30;;;;;;;19.91;42.37;100470.75;5053236;28;20052;-72
2021/05/30 06:49:16;;;;;;;4.93;2.58;;;;;;;18.01;46.24;100475.59;5053556;28;20049;-73
2021/05/30 06:51:46;;;;;;;3.60;2.38;;;;;;;19.53;42.74;100473.50;5053265;28;20041;-73
2021/05/30 06:54:16;;;;;;;3.97;2.40;;;;;;;20.11;40.88;100468.00;5053243;28;20041;-75
2021/05/30 06:56:45;;;;;;;3.58;2.10;;;;;;;19.49;41.24;100477.50;5053759;28;20075;-71
2021/05/30 06:59:13;;;;;;;4.30;2.45;;;;;;;18.90;43.63;100476.63;5053432;28;20478;-70
2021/05/30 07:01:40;;;;;;;4.03;2.78;;;;;;;18.56;44.05;100470.72;5053101;28;20045;-72
2021/05/30 07:04:08;;;;;;;5.07;2.20;;;;;;;18.27;42.69;100484.97;5053345;28;20069;-74
2021/05/30 07:06:36;;;;;;;3.75;1.95;;;;;;;18.11;42.26;100475.66;5052809;28;20045;-75
2021/05/30 07:09:06;;;;;;;3.80;2.20;;;;;;;17.90;43.65;100486.50;5053111;28;20047;-74
2021/05/30 07:11:37;;;;;;;4.82;2.35;;;;;;;17.56;44.44;100485.81;5053106;28;20051;-75
2021/05/30 07:14:05;;;;;;;4.00;2.00;;;;;;;17.03;44.86;100473.19;5053543;28;20106;-77
2021/05/30 07:16:33;;;;;;;3.88;2.20;;;;;;;17.02;44.92;100484.09;5053097;28;20504;-79
2021/05/30 07:19:01;;;;;;;4.32;2.35;;;;;;;16.66;46.44;100485.28;5053153;28;20124;-81
2021/05/30 07:21:28;;;;;;;3.50;2.20;;;;;;;16.65;46.90;100475.47;5053016;28;20036;-80
2021/05/30 07:23:56;;;;;;;6.90;2.47;;;;;;;16.70;47.28;100481.41;5052920;28;20441;-77
2021/05/30 07:26:24;;;;;;;3.88;2.10;;;;;;;16.55;48.08;100483.44;5053648;28;20045;-78
2021/05/30 07:28:53;;;;;;;3.78;2.38;;;;;;;16.60;48.42;100481.25;5052640;28;20041;-75
2021/05/30 07:31:21;;;;;;;4.18;2.20;;;;;;;16.49;47.25;100482.09;5052956;28;20052;-72
2021/05/30 07:33:48;;;;;;;4.13;2.10;;;;;;;16.65;47.49;100489.81;5052556;28;20103;-74
2021/05/30 07:36:17;;;;;;;2.70;1.92;;;;;;;16.52;47.16;100475.63;5052932;28;20122;-79
2021/05/30 07:38:45;;;;;;;5.28;2.42;;;;;;;16.75;46.94;100487.25;5052260;28;20055;-76
2021/05/30 07:41:13;;;;;;;3.92;2.03;;;;;;;16.42;47.63;100486.28;5052651;28;20045;-77
2021/05/30 07:43:41;;;;;;;3.50;2.35;;;;;;;16.60;47.77;100484.81;5051844;28;20107;-77
2021/05/30 07:46:10;;;;;;;4.82;2.38;;;;;;;16.77;47.03;100482.56;5053066;28;20047;-76
2021/05/30 07:48:38;;;;;;;3.58;2.30;;;;;;;16.93;47.06;100474.94;5052619;28;20049;-77
2021/05/30 07:51:06;;;;;;;3.33;2.10;;;;;;;16.75;47.05;100480.00;5053397;28;20063;-77
2021/05/30 07:53:34;;;;;;;3.72;2.40;;;;;;;16.38;48.62;100484.81;5052908;28;20465;-77
2021/05/30 07:56:03;;;;;;;3.85;2.47;;;;;;;16.40;48.49;100471.22;5056207;28;20458;-77
2021/05/30 07:58:31;;;;;;;3.50;2.30;;;;;;;16.14;48.19;100476.03;5057064;28;20048;-77
2021/05/30 08:00:59;;;;;;;4.03;2.50;;;;;;;16.44;48.41;100478.94;5056547;28;20041;-77
2021/05/30 08:03:28;;;;;;;3.70;2.40;;;;;;;16.34;49.45;100483.38;5057161;28;20098;-77
2021/05/30 08:05:56;;;;;;;5.47;2.60;;;;;;;16.59;48.66;100471.44;5056510;28;20040;-77
2021/05/30 08:08:24;;;;;;;4.70;2.33;;;;;;;16.77;48.03;100474.50;5055522;28;20056;-76
2021/05/30 08:10:52;;;;;;;4.60;2.58;;;;;;;16.65;48.59;100479.03;5056531;28;20047;-76
2021/05/30 08:13:20;;;;;;;4.75;2.65;;;;;;;16.73;48.05;100483.81;5056626;28;20090;-77
2021/05/30 08:15:47;;;;;;;3.60;2.30;;;;;;;16.47;47.32;100481.38;5056292;28;20102;-77
2021/05/30 08:18:16;;;;;;;4.05;2.38;;;;;;;16.37;47.17;100483.09;5056662;28;20135;-76
2021/05/30 08:20:46;;;;;;;3.95;2.10;;;;;;;16.36;47.30;100486.78;5056290;28;20079;-76
2021/05/30 08:23:14;;;;;;;3.70;2.30;;;;;;;16.33;46.20;100481.66;5056718;28;20041;-77
2021/05/30 08:25:42;;;;;;;4.22;2.35;;;;;;;16.31;46.92;100483.63;5056195;28;20043;-76
2021/05/30 08:28:10;;;;;;;3.75;2.20;;;;;;;16.44;45.58;100489.72;5056325;28;20055;-76
2021/05/30 08:30:38;;;;;;;4.63;2.60;;;;;;;16.73;45.57;100478.44;5056393;28;20073;-76
2021/05/30 08:33:07;;;;;;;5.50;2.38;;;;;;;16.74;46.84;100486.38;5056828;28;20041;-77
2021/05/30 08:35:35;;;;;;;4.35;2.40;;;;;;;16.58;46.85;100486.75;5056354;28;20457;-76
2021/05/30 08:38:20;;;;;;;3.90;2.33;;;;;;;16.79;47.07;100486.00;5056335;28;20040;-77
2021/05/30 08:40:57;;;;;;;4.65;2.17;;;;;;;16.52;46.96;100495.34;5056110;28;20049;-76
2021/05/30 08:43:26;;;;;;;4.07;2.10;;;;;;;16.55;46.93;100497.78;5055961;28;20132;-77
2021/05/30 08:45:54;;;;;;;5.85;2.28;;;;;;;16.84;47.08;100481.09;5054566;28;20084;-76
2021/05/30 08:48:23;;;;;;;3.40;2.28;;;;;;;16.97;45.89;100484.47;5056047;28;20449;-76
2021/05/30 08:51:04;;;;;;;4.18;2.58;;;;;;;17.13;46.36;100467.88;5055813;28;20045;-76
2021/05/30 08:53:34;;;;;;;3.25;1.92;;;;;;;17.29;45.29;100487.19;5056423;28;20094;-76
2021/05/30 08:56:04;;;;;;;3.83;2.13;;;;;;;17.58;44.08;100497.34;5055952;28;20063;-76
2021/05/30 08:58:36;;;;;;;3.53;1.98;;;;;;;17.41;43.29;100486.13;5056811;28;20498;-76
2021/05/30 09:01:11;;;;;;;3.97;2.00;;;;;;;17.60;43.24;100495.38;5058625;28;20053;-77
2021/05/30 09:03:54;;;;;;;3.00;2.03;;;;;;;17.34;45.59;100490.34;5056430;28;20037;-77
2021/05/30 09:06:25;;;;;;;5.38;2.47;;;;;;;16.88;46.63;100485.22;5055408;28;20045;-77
2021/05/30 09:08:54;;;;;;;3.70;2.28;;;;;;;17.03;46.31;100486.66;5055447;28;20049;-76
2021/05/30 09:11:44;;;;;;;4.78;2.53;;;;;;;17.27;45.93;100483.75;5055778;28;20048;-76
2021/05/30 09:14:15;;;;;;;3.17;2.08;;;;;;;17.24;45.41;100484.00;5055859;28;20041;-76
2021/05/30 09:16:55;;;;;;;2.90;1.80;;;;;;;17.59;44.02;100481.03;5055295;28;20048;-83
2021/05/30 09:19:35;;;;;;;5.28;1.90;;;;;;;17.40;44.42;100481.75;5055697;28;20068;-76
2021/05/30 09:22:26;;;;;;;3.42;2.03;;;;;;;17.67;43.77;100475.81;5055432;28;20478;-77
2021/05/30 09:25:16;;;;;;;2.67;1.85;;;;;;;17.70;43.60;100477.44;5055112;28;20075;-76
2021/05/30 09:27:47;;;;;;;2.50;1.70;;;;;;;17.56;42.76;100485.81;5055227;28;20374;-83
2021/05/30 09:30:19;;;;;;;3.08;1.70;;;;;;;17.65;43.23;100477.78;5055721;28;20041;-77
2021/05/30 09:33:04;;;;;;;2.75;1.83;;;;;;;18.20;42.40;100467.59;5054869;28;20487;-77
2021/05/30 09:35:49;;;;;;;3.00;1.92;;;;;;;18.65;41.20;100464.50;5055599;28;20087;-77
2021/05/30 09:38:19;;;;;;;3.33;1.88;;;;;;;18.88;41.57;100452.44;5055126;28;20407;-77
2021/05/30 09:40:49;;;;;;;3.63;1.88;;;;;;;19.29;40.06;100458.56;5054885;28;20044;-78
2021/05/30 09:43:19;;;;;;;4.53;1.92;;;;;;;18.96;40.55;100459.00;5054938;28;20071;-76
2021/05/30 09:46:16;;;;;;;3.25;1.98;;;;;;;18.67;42.00;100458.97;5054786;28;20128;-78
2021/05/30 09:48:56;;;;;;;5.30;2.10;;;;;;;18.75;42.45;100459.13;5054883;28;20072;-76
2021/05/30 09:51:29;;;;;;;4.10;2.38;;;;;;;18.44;42.58;100464.56;5054917;28;20347;-77
2021/05/30 09:54:01;;;;;;;3.55;1.98;;;;;;;18.49;42.76;100467.69;5054905;28;20049;-76
2021/05/30 09:56:42;;;;;;;6.40;2.13;;;;;;;17.90;44.12;100465.75;5055011;28;20056;-76
2021/05/30 09:59:11;;;;;;;2.83;1.70;;;;;;;18.18;42.25;100464.19;5054586;28;20044;-77
2021/05/30 10:01:54;;;;;;;3.45;1.63;;;;;;;18.04;42.99;100464.53;5054514;28;20072;-79
2021/05/30 10:04:23;;;;;;;4.88;1.60;;;;;;;17.91;43.05;100467.47;5054627;28;20036;-77
2021/05/30 10:06:51;;;;;;;4.47;2.00;;;;;;;17.90;43.73;100467.59;5054603;28;20114;-78
2021/05/30 10:09:19;;;;;;;2.72;1.75;;;;;;;17.87;43.54;100463.34;5054405;28;20544;-75
2021/05/30 10:11:49;;;;;;;4.22;1.77;;;;;;;17.98;43.48;100463.25;5054450;28;20044;-83
2021/05/30 10:14:20;;;;;;;3.53;1.80;;;;;;;17.98;43.23;100467.78;5054477;28;20049;-77
2021/05/30 10:16:48;;;;;;;2.58;1.60;;;;;;;18.35;42.87;100460.00;5054190;28;20044;-77
2021/05/30 10:19:18;;;;;;;3.05;1.90;;;;;;;18.39;42.33;100457.88;5053746;28;20052;-77
2021/05/30 10:21:49;;;;;;;3.72;1.80;;;;;;;18.58;42.19;100455.22;5054272;28;20045;-77
2021/05/30 10:24:19;;;;;;;2.90;1.80;;;;;;;18.77;41.00;100457.13;5054125;28;20075;-77
2021/05/30 10:27:14;;;;;;;3.13;2.00;;;;;;;18.87;41.02;100456.16;5054251;28;20075;-76
2021/05/30 10:30:15;;;;;;;4.05;2.15;;;;;;;18.62;41.72;100456.63;5054219;28;20367;-81
2021/05/30 10:32:46;;;;;;;4.40;2.20;;;;;;;18.71;42.53;100450.44;5052157;28;20057;-82
2021/05/30 10:35:19;;;;;;;3.95;2.05;;;;;;;19.00;42.63;100457.72;5053718;28;20375;-76
2021/05/30 10:37:50;;;;;;;3.10;1.80;;;;;;;19.16;41.07;100461.56;5053848;28;20120;-74
2021/05/30 10:40:32;;;;;;;3.70;1.95;;;;;;;18.61;42.67;100460.31;5053872;28;20593;-74
2021/05/30 10:43:21;;;;;;;3.97;2.17;;;;;;;19.00;41.20;100455.00;5053113;28;20083;-75
2021/05/30 10:46:08;;;;;;;4.15;1.90;;;;;;;19.29;41.48;100458.56;5053620;28;20041;-74
2021/05/30 10:48:38;;;;;;;3.08;1.90;;;;;;;18.79;41.26;100460.53;5053602;28;20045;-73
2021/05/30 10:54:12;;;;;;;3.97;2.13;;;;;;;18.90;40.91;100462.25;5037997;28;20089;-68
2021/05/30 10:56:46;;;;;;;3.03;2.10;;;;;;;18.77;41.56;100458.00;5053541;28;20048;-71
2021/05/30 10:59:36;;;;;;;2.85;1.90;;;;;;;18.17;41.91;100457.09;5053054;28;20049;-71
2021/05/30 11:02:13;;;;;;;5.97;1.88;;;;;;;18.07;41.57;100466.97;5052668;28;20071;-71
2021/05/30 11:04:47;;;;;;;2.63;1.73;;;;;;;18.19;41.74;100467.75;5053520;28;20492;-71
2021/05/30 11:07:36;;;;;;;5.85;1.92;;;;;;;18.33;40.88;100461.94;5052820;28;20045;-70
2021/05/30 11:10:22;;;;;;;3.78;2.05;;;;;;;18.95;40.24;100451.91;5052581;28;20132;-69
2021/05/30 11:12:59;;;;;;;2.55;1.75;;;;;;;19.10;39.55;100455.88;5053191;28;20073;-71
2021/05/30 11:15:37;;;;;;;2.42;1.40;;;;;;;18.85;36.97;100458.16;5052986;28;20033;-70
2021/05/30 11:18:06;;;;;;;3.28;1.80;;;;;;;18.80;35.32;100454.16;5052793;28;20123;-71
2021/05/30 11:20:51;;;;;;;3.60;1.42;;;;;;;19.04;37.40;100443.78;5052803;28;20132;-70
2021/05/30 11:23:20;;;;;;;3.80;1.73;;;;;;;19.04;38.96;100453.75;5052679;28;20208;-69
2021/05/30 11:25:51;;;;;;;4.07;1.90;;;;;;;18.35;42.04;100460.00;5053076;28;20099;-71
2021/05/30 11:28:21;;;;;;;4.38;2.17;;;;;;;18.45;41.86;100449.22;5052464;28;20045;-71
2021/05/30 11:30:53;;;;;;;4.03;1.90;;;;;;;18.42;42.25;100452.19;5052937;28;20045;-71
2021/05/30 11:33:40;;;;;;;2.53;1.80;;;;;;;18.59;42.72;100446.13;5052733;28;20140;-72
2021/05/30 11:36:16;;;;;;;4.30;2.00;;;;;;;18.98;42.23;100440.78;5052643;28;20049;-70
2021/05/30 11:38:50;;;;;;;2.90;1.90;;;;;;;18.51;42.75;100452.19;5052969;28;20056;-72
2021/05/30 11:41:23;;;;;;;3.03;1.83;;;;;;;18.20;42.04;100451.41;5052750;28;20239;-73
2021/05/30 11:43:54;;;;;;;3.17;1.90;;;;;;;18.39;41.00;100452.47;5052455;28;20456;-74
2021/05/30 11:46:24;;;;;;;2.80;1.85;;;;;;;18.50;40.75;100444.25;5052848;28;20044;-71